Terminal Aerodrome Forecast
Issued by NWS Atlanta, GA

Home | Current Version | Previous Version | Text Only | Print | Product List | Glossary On
Versions: 1 2 3 4 5 6 7 8 9 10 11 12 13 14 15
276
FTUS42 KFFC 291726
TAFMCN
TAF
KMCN 291726Z 2918/3018 27010G16KT P6SM SCT050
     FM300100 26004KT P6SM FEW250
     FM301400 28005KT P6SM FEW030
     FM301600 29007KT P6SM SCT050=

USA.gov is the U.S. government's official web portal to all federal, state and local government web resources and services.